Time;durP1;ratioP1;P1;durP2;ratioP2;P2;SDS_P1;SDS_P2;PMS_P1;PMS_P2;Temp;Humidity;BMP_temperature;BMP_pressure;BME280_temperature;BME280_humidity;BME280_pressure;Samples;Min_cycle;Max_cycle;Signal;HPM_P1;HPM_P2
2022/03/07 00:01:55;;;;;;;6.57;3.90;;;3.70;95.20;;;;;;6182891;23;20020;-85
2022/03/07 00:04:21;;;;;;;8.32;4.43;;;3.70;95.40;;;;;;6183965;23;20005;-84
2022/03/07 00:06:50;;;;;;;9.25;4.43;;;3.60;95.40;;;;;;6185066;23;20379;-85
2022/03/07 00:09:15;;;;;;;8.10;4.53;;;3.60;95.40;;;;;;6183627;23;19997;-84
2022/03/07 00:11:44;;;;;;;10.82;4.70;;;3.60;95.30;;;;;;6183521;23;20044;-84
2022/03/07 00:14:09;;;;;;;7.10;4.30;;;3.60;95.40;;;;;;6183129;23;20405;-84
2022/03/07 00:16:38;;;;;;;9.90;4.65;;;3.50;95.50;;;;;;6183543;23;20020;-84
2022/03/07 00:19:12;;;;;;;7.95;4.35;;;3.50;95.40;;;;;;6184607;23;20009;-84
2022/03/07 00:21:53;;;;;;;9.90;4.47;;;3.50;95.50;;;;;;6183733;23;20068;-82
2022/03/07 00:24:22;;;;;;;7.35;4.05;;;3.50;95.50;;;;;;6185213;23;20052;-83
2022/03/07 00:26:47;;;;;;;8.23;4.72;;;3.40;95.80;;;;;;6183576;23;20043;-84
2022/03/07 00:29:13;;;;;;;12.05;4.80;;;3.40;95.80;;;;;;6183437;23;20005;-82
2022/03/07 00:31:41;;;;;;;10.25;4.30;;;3.40;96.00;;;;;;6183334;23;20080;-82
2022/03/07 00:34:10;;;;;;;7.55;4.55;;;3.40;96.00;;;;;;6183394;23;20373;-83
2022/03/07 00:36:46;;;;;;;;;;;;;;;;;;;;;
2022/03/07 00:39:14;;;;;;;7.38;4.28;;;3.30;96.30;;;;;;6184578;23;20072;-83
2022/03/07 00:41:40;;;;;;;9.60;4.75;;;3.30;96.40;;;;;;6183525;23;20009;-84
2022/03/07 00:44:06;;;;;;;9.40;4.90;;;3.20;96.60;;;;;;6183233;23;20060;-83
2022/03/07 00:46:35;;;;;;;9.15;4.90;;;3.30;96.80;;;;;;6183390;23;20004;-83
2022/03/07 00:49:03;;;;;;;8.77;4.53;;;3.20;96.90;;;;;;6183091;23;20001;-83
2022/03/07 00:51:31;;;;;;;8.73;4.95;;;3.20;97.00;;;;;;6183425;23;20009;-83
2022/03/07 00:54:00;;;;;;;12.80;5.13;;;3.20;97.00;;;;;;6183353;23;20028;-83
2022/03/07 00:56:28;;;;;;;8.18;4.70;;;3.20;97.00;;;;;;6158845;23;20002;-83
2022/03/07 00:58:58;;;;;;;8.30;4.35;;;3.10;97.00;;;;;;6183483;23;20013;-83
2022/03/07 01:01:25;;;;;;;9.25;5.05;;;3.10;96.90;;;;;;6159310;23;20005;-83
2022/03/07 01:03:50;;;;;;;9.23;5.28;;;3.10;96.80;;;;;;6183599;23;20163;-84
2022/03/07 01:06:16;;;;;;;10.80;4.80;;;3.10;96.90;;;;;;6184905;23;20028;-83
2022/03/07 01:08:42;;;;;;;11.95;5.15;;;3.00;96.90;;;;;;6185383;23;20058;-83
2022/03/07 01:11:10;;;;;;;9.90;5.10;;;3.10;96.90;;;;;;6186349;23;20060;-83
2022/03/07 01:13:38;;;;;;;8.35;4.50;;;3.00;97.10;;;;;;6185204;23;20005;-83
2022/03/07 01:16:04;;;;;;;8.07;4.55;;;3.00;97.00;;;;;;6160303;23;20016;-83
2022/03/07 01:18:32;;;;;;;9.90;5.22;;;3.00;97.10;;;;;;6160602;23;20040;-83
2022/03/07 01:21:00;;;;;;;8.05;4.38;;;2.90;97.10;;;;;;6184841;23;20043;-84
2022/03/07 01:23:26;;;;;;;10.98;5.38;;;2.90;97.30;;;;;;6185185;23;20001;-83
2022/03/07 01:25:54;;;;;;;10.55;5.63;;;2.90;97.50;;;;;;6160294;23;20100;-83
2022/03/07 01:28:23;;;;;;;10.23;5.53;;;2.90;97.50;;;;;;6185071;23;20001;-84
2022/03/07 01:30:48;;;;;;;8.23;5.05;;;2.80;97.50;;;;;;6185227;23;20420;-84
2022/03/07 01:33:14;;;;;;;9.23;5.10;;;2.80;97.50;;;;;;6184998;23;20001;-83
2022/03/07 01:35:42;;;;;;;9.65;4.47;;;2.80;97.70;;;;;;6185145;23;20467;-83
2022/03/07 01:38:10;;;;;;;8.32;4.82;;;2.80;97.70;;;;;;6184750;23;20084;-83
2022/03/07 01:40:36;;;;;;;7.03;4.35;;;2.80;97.70;;;;;;6184975;23;20329;-83
2022/03/07 01:43:09;;;;;;;8.43;4.95;;;2.70;97.80;;;;;;6185093;23;20001;-85
2022/03/07 01:45:39;;;;;;;8.93;4.90;;;2.70;97.90;;;;;;6185255;23;20431;-84
2022/03/07 01:48:07;;;;;;;8.13;5.00;;;2.70;97.80;;;;;;6184430;23;20079;-84
2022/03/07 01:50:33;;;;;;;7.60;4.45;;;2.70;97.80;;;;;;6159956;23;20483;-84
2022/03/07 01:53:02;;;;;;;8.98;4.75;;;2.60;97.80;;;;;;6160071;23;20368;-88
2022/03/07 01:55:27;;;;;;;8.75;5.00;;;2.60;97.90;;;;;;6184961;23;20009;-83
2022/03/07 01:57:53;;;;;;;10.30;5.00;;;2.50;97.90;;;;;;6184943;23;20011;-84
2022/03/07 02:00:22;;;;;;;10.02;5.05;;;2.60;98.00;;;;;;6184325;23;20379;-85
2022/03/07 02:02:53;;;;;;;9.90;4.78;;;2.50;97.90;;;;;;6184908;23;20005;-85
2022/03/07 02:05:21;;;;;;;10.90;5.10;;;2.60;98.10;;;;;;6184811;23;20084;-84
2022/03/07 02:07:49;;;;;;;9.20;4.90;;;2.50;98.10;;;;;;6159604;23;20032;-84
2022/03/07 02:10:15;;;;;;;8.27;4.88;;;2.50;98.20;;;;;;6184483;23;20009;-84
2022/03/07 02:12:41;;;;;;;9.27;5.15;;;2.40;98.20;;;;;;6184810;23;20033;-85
2022/03/07 02:15:12;;;;;;;9.77;5.43;;;2.40;98.30;;;;;;6183768;23;20088;-84
2022/03/07 02:17:38;;;;;;;7.75;5.30;;;2.40;98.60;;;;;;6160668;23;20048;-84
2022/03/07 02:20:16;;;;;;;10.73;5.30;;;2.40;98.70;;;;;;6183787;23;20016;-85
2022/03/07 02:22:45;;;;;;;12.32;5.80;;;2.30;98.80;;;;;;6184772;23;20020;-84
2022/03/07 02:25:16;;;;;;;10.95;5.57;;;2.30;98.90;;;;;;6184304;23;20072;-84
2022/03/07 02:27:45;;;;;;;11.85;5.70;;;2.30;99.10;;;;;;6160596;23;20008;-84
2022/03/07 02:30:11;;;;;;;9.40;5.28;;;2.30;99.20;;;;;;6184410;23;20001;-84
2022/03/07 02:32:36;;;;;;;10.55;5.43;;;2.30;99.30;;;;;;6135193;23;20015;-84
2022/03/07 02:35:06;;;;;;;11.35;6.20;;;2.30;99.30;;;;;;6184189;23;20028;-84
2022/03/07 02:37:36;;;;;;;7.85;5.05;;;2.20;99.50;;;;;;6160522;23;20384;-85
2022/03/07 02:40:04;;;;;;;11.55;5.63;;;2.20;99.50;;;;;;6160153;23;20020;-84
2022/03/07 02:42:30;;;;;;;10.48;6.35;;;2.20;99.60;;;;;;6185690;23;20087;-84
2022/03/07 02:44:56;;;;;;;10.63;5.88;;;2.20;99.50;;;;;;6184214;23;20352;-84
2022/03/07 02:47:24;;;;;;;11.45;5.95;;;2.10;99.50;;;;;;6184081;23;20001;-84
2022/03/07 02:49:50;;;;;;;10.18;5.40;;;2.10;99.70;;;;;;6184459;23;20057;-84
2022/03/07 02:52:16;;;;;;;10.00;5.97;;;2.10;99.80;;;;;;6184143;23;20472;-84
2022/03/07 02:54:44;;;;;;;15.43;6.38;;;2.10;99.90;;;;;;6184116;23;20092;-84
2022/03/07 02:57:10;;;;;;;11.55;6.40;;;2.10;99.90;;;;;;6159533;23;20012;-85
2022/03/07 02:59:43;;;;;;;8.57;6.18;;;2.10;99.90;;;;;;6184042;23;20005;-84
2022/03/07 03:02:12;;;;;;;11.20;6.03;;;2.10;99.90;;;;;;6160062;23;20009;-84
2022/03/07 03:04:40;;;;;;;9.48;5.95;;;2.00;99.90;;;;;;6160180;23;20387;-84
2022/03/07 03:07:08;;;;;;;11.07;6.78;;;2.00;99.90;;;;;;6183773;23;19997;-84
2022/03/07 03:09:36;;;;;;;10.60;6.70;;;2.00;99.90;;;;;;6184479;23;20008;-84
2022/03/07 03:12:04;;;;;;;10.18;6.35;;;2.00;99.90;;;;;;6184233;23;20160;-84
2022/03/07 03:14:33;;;;;;;10.15;6.15;;;2.00;99.90;;;;;;6183972;23;20058;-84
2022/03/07 03:16:58;;;;;;;11.95;6.13;;;2.00;99.90;;;;;;6184152;23;20001;-84
2022/03/07 03:19:24;;;;;;;12.40;6.80;;;1.90;99.90;;;;;;6183570;23;20013;-84
2022/03/07 03:21:52;;;;;;;10.63;6.68;;;1.90;99.90;;;;;;6183803;23;20032;-84
2022/03/07 03:24:27;;;;;;;9.63;6.13;;;1.90;99.90;;;;;;6183729;23;20001;-85
2022/03/07 03:26:55;;;;;;;11.88;6.80;;;1.90;99.90;;;;;;6183722;23;20004;-84
2022/03/07 03:29:23;;;;;;;10.07;6.22;;;1.90;99.90;;;;;;6183226;23;19997;-84
2022/03/07 03:31:49;;;;;;;11.07;6.80;;;1.90;99.90;;;;;;6183955;23;20189;-85
2022/03/07 03:34:15;;;;;;;11.57;6.80;;;1.90;99.90;;;;;;6183594;23;20053;-84
2022/03/07 03:36:41;;;;;;;10.00;6.95;;;1.80;99.90;;;;;;6159353;23;20080;-85
2022/03/07 03:39:07;;;;;;;12.20;7.22;;;1.80;99.90;;;;;;6183954;23;20011;-84
2022/03/07 03:41:32;;;;;;;13.65;7.38;;;1.80;99.90;;;;;;6183760;23;20005;-84
2022/03/07 03:43:58;;;;;;;16.27;7.45;;;1.80;99.90;;;;;;6184031;23;20297;-84
2022/03/07 03:46:24;;;;;;;13.02;7.60;;;1.80;99.90;;;;;;6183499;23;20447;-84
2022/03/07 03:48:50;;;;;;;13.73;7.55;;;1.80;99.90;;;;;;6158876;23;20001;-84
2022/03/07 03:51:16;;;;;;;12.73;7.97;;;1.70;99.90;;;;;;6183554;23;20005;-85
2022/03/07 03:53:44;;;;;;;13.80;7.97;;;1.70;99.90;;;;;;6183709;23;20072;-84
2022/03/07 03:56:09;;;;;;;13.88;7.63;;;1.80;99.90;;;;;;6135025;23;20006;-84
2022/03/07 03:58:38;;;;;;;12.85;7.78;;;1.70;99.90;;;;;;6183496;23;20096;-84
2022/03/07 04:01:03;;;;;;;13.30;7.72;;;1.70;99.90;;;;;;6159613;23;20035;-84
2022/03/07 04:03:30;;;;;;;13.73;7.78;;;1.70;99.90;;;;;;6183361;23;20495;-84
2022/03/07 04:06:03;;;;;;;12.23;7.53;;;1.70;99.90;;;;;;6185238;23;20005;-84
2022/03/07 04:08:29;;;;;;;15.05;8.23;;;1.60;99.90;;;;;;6183608;23;20001;-84
2022/03/07 04:10:55;;;;;;;14.07;8.30;;;1.60;99.90;;;;;;6183643;23;20009;-84
2022/03/07 04:13:20;;;;;;;13.80;7.43;;;1.60;99.90;;;;;;6183452;23;20012;-84
2022/03/07 04:15:48;;;;;;;13.10;7.82;;;1.60;99.90;;;;;;6183904;23;19997;-84
2022/03/07 04:18:14;;;;;;;12.88;8.27;;;1.60;99.90;;;;;;6183603;23;20051;-83
2022/03/07 04:20:40;;;;;;;16.08;7.97;;;1.60;99.90;;;;;;6183266;23;20009;-84
2022/03/07 04:23:06;;;;;;;12.50;7.38;;;1.60;99.90;;;;;;6159083;23;20012;-84
2022/03/07 04:25:33;;;;;;;14.68;8.35;;;1.60;99.90;;;;;;6183565;23;20309;-84
2022/03/07 04:28:00;;;;;;;15.55;8.02;;;1.60;99.90;;;;;;6185295;23;20008;-84
2022/03/07 04:30:26;;;;;;;14.80;8.95;;;1.60;99.90;;;;;;6183716;23;20167;-84
2022/03/07 04:32:52;;;;;;;13.88;8.80;;;1.50;99.90;;;;;;6183827;23;20080;-84
2022/03/07 04:35:18;;;;;;;12.70;8.52;;;1.50;99.90;;;;;;6183518;23;20048;-84
2022/03/07 04:37:44;;;;;;;14.18;8.40;;;1.50;99.90;;;;;;6183456;23;20405;-84
2022/03/07 04:40:16;;;;;;;17.60;8.63;;;1.50;99.90;;;;;;6185355;23;20004;-84
2022/03/07 04:42:43;;;;;;;13.68;8.20;;;1.50;99.90;;;;;;6186773;23;20004;-84
2022/03/07 04:45:10;;;;;;;13.02;8.07;;;1.50;99.90;;;;;;6160318;23;20005;-85
2022/03/07 04:47:37;;;;;;;16.23;8.75;;;1.50;99.90;;;;;;6185398;23;20374;-83
2022/03/07 04:50:05;;;;;;;16.20;9.00;;;1.50;99.90;;;;;;6160918;23;20025;-83
2022/03/07 04:52:34;;;;;;;18.75;8.70;;;1.40;99.90;;;;;;6160937;23;20001;-84
2022/03/07 04:55:00;;;;;;;13.57;8.38;;;1.40;99.90;;;;;;6161126;23;20092;-84
2022/03/07 04:57:36;;;;;;;13.68;8.60;;;1.40;99.90;;;;;;6185200;23;20392;-84
2022/03/07 05:00:08;;;;;;;13.73;8.45;;;1.40;99.90;;;;;;6185553;23;20009;-83
2022/03/07 05:02:36;;;;;;;15.48;9.48;;;1.40;99.90;;;;;;6185374;23;20036;-83
2022/03/07 05:05:02;;;;;;;14.45;8.65;;;1.40;99.90;;;;;;6185562;23;20001;-84
2022/03/07 05:07:28;;;;;;;18.95;8.35;;;1.40;99.90;;;;;;6136082;23;20336;-84
2022/03/07 05:09:57;;;;;;;16.88;9.43;;;1.40;99.90;;;;;;6160744;23;20005;-84
2022/03/07 05:12:22;;;;;;;15.35;8.48;;;1.40;99.90;;;;;;6186753;23;20051;-83
2022/03/07 05:14:48;;;;;;;12.05;7.78;;;1.40;99.90;;;;;;6185146;23;20425;-84
2022/03/07 05:17:14;;;;;;;14.10;8.73;;;1.40;99.90;;;;;;6185035;23;20009;-84
2022/03/07 05:19:45;;;;;;;16.17;9.20;;;1.30;99.90;;;;;;6184988;23;20009;-84
2022/03/07 05:22:10;;;;;;;15.50;8.75;;;1.40;99.90;;;;;;6185479;23;20020;-83
2022/03/07 05:24:36;;;;;;;15.15;8.68;;;1.30;99.90;;;;;;6160104;23;20337;-83
2022/03/07 05:27:02;;;;;;;16.67;9.40;;;1.30;99.90;;;;;;6185141;23;20001;-83
2022/03/07 05:29:28;;;;;;;13.88;8.30;;;1.20;99.90;;;;;;6184724;23;20013;-84
2022/03/07 05:31:53;;;;;;;14.63;8.70;;;1.20;99.90;;;;;;6160543;23;20036;-83
2022/03/07 05:34:19;;;;;;;16.45;9.02;;;1.30;99.90;;;;;;6186236;23;19997;-84
2022/03/07 05:36:45;;;;;;;16.00;8.45;;;1.20;99.90;;;;;;6184744;23;20052;-84
2022/03/07 05:39:11;;;;;;;15.27;9.57;;;1.20;99.90;;;;;;6184954;23;20137;-83
2022/03/07 05:41:37;;;;;;;16.08;8.70;;;1.20;99.90;;;;;;6184503;23;20009;-84
2022/03/07 05:44:03;;;;;;;15.45;8.80;;;1.20;99.90;;;;;;6184947;23;20016;-83
2022/03/07 05:46:29;;;;;;;15.32;9.30;;;1.20;99.90;;;;;;6184606;23;20323;-84
2022/03/07 05:48:55;;;;;;;15.10;9.10;;;1.20;99.90;;;;;;6184793;23;20037;-84
2022/03/07 05:51:24;;;;;;;15.57;9.00;;;1.10;99.90;;;;;;6159794;23;20101;-83
2022/03/07 05:53:51;;;;;;;16.05;9.50;;;1.10;99.90;;;;;;6184382;23;20008;-84
2022/03/07 05:56:17;;;;;;;14.85;9.13;;;1.10;99.90;;;;;;6184905;23;20035;-83
2022/03/07 05:58:43;;;;;;;16.52;9.73;;;1.10;99.90;;;;;;6182778;23;20028;-84
2022/03/07 06:01:08;;;;;;;15.63;9.23;;;1.10;99.90;;;;;;6185009;23;20420;-83
2022/03/07 06:03:37;;;;;;;17.08;9.93;;;1.10;99.90;;;;;;6184730;23;20379;-83
2022/03/07 06:06:03;;;;;;;21.13;10.65;;;1.10;99.90;;;;;;6184832;23;20028;-83
2022/03/07 06:08:28;;;;;;;18.00;10.07;;;1.10;99.90;;;;;;6185226;23;19997;-83
2022/03/07 06:10:54;;;;;;;15.60;9.65;;;1.10;99.90;;;;;;6159738;23;20028;-83
2022/03/07 06:13:20;;;;;;;16.10;10.13;;;1.10;99.90;;;;;;6184889;23;20391;-82
2022/03/07 06:15:46;;;;;;;15.13;9.25;;;1.10;99.90;;;;;;6159859;23;20088;-83
2022/03/07 06:18:13;;;;;;;18.65;10.57;;;1.10;99.90;;;;;;6186502;23;20008;-83
2022/03/07 06:20:39;;;;;;;17.35;10.82;;;1.10;99.90;;;;;;6184258;23;20037;-81
2022/03/07 06:23:05;;;;;;;15.82;9.93;;;1.10;99.90;;;;;;6184573;23;20044;-81
2022/03/07 06:25:33;;;;;;;17.05;9.90;;;1.10;99.90;;;;;;6184192;23;20009;-82
2022/03/07 06:28:03;;;;;;;15.68;9.10;;;1.10;99.90;;;;;;6184555;23;20033;-82
2022/03/07 06:30:30;;;;;;;16.73;9.85;;;1.10;99.90;;;;;;6160770;23;20013;-81
2022/03/07 06:32:56;;;;;;;14.10;10.18;;;1.10;99.90;;;;;;6184065;23;20004;-83
2022/03/07 06:35:22;;;;;;;16.23;9.90;;;1.10;99.90;;;;;;6185142;23;20055;-83
2022/03/07 06:37:52;;;;;;;17.27;10.30;;;1.10;99.90;;;;;;6157553;23;20091;-83
2022/03/07 06:40:20;;;;;;;18.00;10.37;;;1.10;99.90;;;;;;6182278;23;20091;-84
2022/03/07 06:42:46;;;;;;;16.17;9.88;;;1.10;99.90;;;;;;6183331;23;20005;-82
2022/03/07 06:45:13;;;;;;;18.73;10.70;;;1.10;99.90;;;;;;6184912;23;20001;-82
2022/03/07 06:47:49;;;;;;;17.33;10.63;;;1.10;99.90;;;;;;6183773;23;20015;-83
2022/03/07 06:50:24;;;;;;;16.48;10.35;;;1.10;99.90;;;;;;6184456;23;20005;-82
2022/03/07 06:52:49;;;;;;;15.95;10.40;;;1.10;99.90;;;;;;6184035;23;20001;-82
2022/03/07 06:55:15;;;;;;;20.65;11.63;;;1.10;99.90;;;;;;6183917;23;20051;-83
2022/03/07 06:57:42;;;;;;;17.30;10.20;;;1.10;99.90;;;;;;6158876;23;20016;-83
2022/03/07 07:00:13;;;;;;;20.45;11.25;;;1.10;99.90;;;;;;6184306;23;20040;-84
2022/03/07 07:02:39;;;;;;;;;;;1.10;99.90;;;;;;6184759;23;20008;-85
2022/03/07 07:05:06;;;;;;;17.77;10.48;;;1.10;99.90;;;;;;6184235;23;19911;-82
2022/03/07 07:07:32;;;;;;;19.45;13.35;;;1.10;99.90;;;;;;6184306;23;20080;-83
2022/03/07 07:09:58;;;;;;;20.30;12.10;;;1.10;99.90;;;;;;6166035;23;20016;-82
2022/03/07 07:12:24;;;;;;;17.48;10.57;;;1.10;99.90;;;;;;6163783;23;20012;-83
2022/03/07 07:14:50;;;;;;;16.95;11.15;;;1.10;99.90;;;;;;6186523;23;20001;-82
2022/03/07 07:17:16;;;;;;;17.17;10.32;;;1.10;99.90;;;;;;6162529;23;20012;-82
2022/03/07 07:19:42;;;;;;;16.65;10.68;;;1.10;99.90;;;;;;6160338;23;20013;-83
2022/03/07 07:22:08;;;;;;;15.05;10.50;;;1.10;99.90;;;;;;6161079;23;20013;-82
2022/03/07 07:24:34;;;;;;;21.33;10.63;;;1.20;99.90;;;;;;6137622;23;20092;-80
2022/03/07 07:27:00;;;;;;;20.10;11.77;;;1.10;99.90;;;;;;6160055;23;20005;-81
2022/03/07 07:29:25;;;;;;;18.08;10.40;;;1.10;99.90;;;;;;6159673;23;20005;-81
2022/03/07 07:31:51;;;;;;;16.85;10.80;;;1.10;99.90;;;;;;6185890;23;20067;-82
2022/03/07 07:34:21;;;;;;;20.55;10.88;;;1.10;99.90;;;;;;6135111;23;20032;-82
2022/03/07 07:36:48;;;;;;;17.17;11.77;;;1.10;99.90;;;;;;6159866;23;20088;-81
2022/03/07 07:39:14;;;;;;;19.10;11.73;;;1.20;99.90;;;;;;6184296;23;20001;-81
2022/03/07 07:41:42;;;;;;;18.42;12.23;;;1.20;99.90;;;;;;6183817;23;20071;-81
2022/03/07 07:44:08;;;;;;;18.25;11.27;;;1.30;99.90;;;;;;6184082;23;20008;-81
2022/03/07 07:46:34;;;;;;;19.85;12.00;;;1.20;99.90;;;;;;6184289;23;20005;-81
2022/03/07 07:48:59;;;;;;;18.02;11.52;;;1.30;99.90;;;;;;6183378;23;20032;-81
2022/03/07 07:51:25;;;;;;;19.10;12.07;;;1.40;99.90;;;;;;6183748;23;20009;-82
2022/03/07 07:53:51;;;;;;;17.98;11.25;;;1.40;99.90;;;;;;6183665;23;20432;-82
2022/03/07 07:56:17;;;;;;;21.20;12.18;;;1.50;99.90;;;;;;6159264;23;20008;-81
2022/03/07 07:58:43;;;;;;;18.15;11.90;;;1.60;99.90;;;;;;6184008;23;20009;-82
2022/03/07 08:01:09;;;;;;;17.73;11.13;;;1.70;99.90;;;;;;6184690;23;20016;-82
2022/03/07 08:03:35;;;;;;;15.82;11.15;;;1.70;99.90;;;;;;6185568;23;19997;-82
2022/03/07 08:06:01;;;;;;;21.75;12.20;;;1.70;99.90;;;;;;6183724;23;20369;-82
2022/03/07 08:08:26;;;;;;;14.25;10.02;;;1.80;99.90;;;;;;6183719;23;20001;-82
2022/03/07 08:10:52;;;;;;;14.57;10.52;;;1.90;99.90;;;;;;6158345;23;20013;-82
2022/03/07 08:13:21;;;;;;;15.02;9.95;;;1.90;99.90;;;;;;6185684;23;20010;-82
2022/03/07 08:15:46;;;;;;;13.65;9.60;;;2.00;99.90;;;;;;6160957;23;20079;-82
2022/03/07 08:18:12;;;;;;;18.17;10.35;;;2.10;99.90;;;;;;6159995;23;20008;-81
2022/03/07 08:20:46;;;;;;;13.25;9.52;;;2.10;99.90;;;;;;6184149;23;20075;-82
2022/03/07 08:23:14;;;;;;;14.90;9.13;;;2.20;99.90;;;;;;6185166;23;20005;-82
2022/03/07 08:25:40;;;;;;;16.13;9.25;;;2.30;99.90;;;;;;6160742;23;20424;-82
2022/03/07 08:28:06;;;;;;;20.50;10.48;;;2.40;99.90;;;;;;6160968;23;20033;-82
2022/03/07 08:30:34;;;;;;;11.18;8.18;;;2.40;99.90;;;;;;6186171;23;20442;-82
2022/03/07 08:33:00;;;;;;;11.80;7.57;;;2.50;99.90;;;;;;6160158;23;20040;-82
2022/03/07 08:35:26;;;;;;;12.82;8.55;;;2.60;99.90;;;;;;6160514;23;20000;-83
2022/03/07 08:37:53;;;;;;;11.15;8.13;;;2.60;99.90;;;;;;6186739;23;20032;-82
2022/03/07 08:40:21;;;;;;;14.00;8.63;;;2.70;99.90;;;;;;6184528;23;20068;-82
2022/03/07 08:42:48;;;;;;;13.52;7.43;;;2.70;99.90;;;;;;6185650;23;20413;-82
2022/03/07 08:45:15;;;;;;;10.40;7.85;;;2.80;99.90;;;;;;6186612;23;20005;-84
2022/03/07 08:47:41;;;;;;;10.63;7.07;;;2.90;99.90;;;;;;6185209;23;19997;-85
2022/03/07 08:50:18;;;;;;;10.63;7.30;;;3.00;99.90;;;;;;6185318;23;20001;-85
2022/03/07 08:52:47;;;;;;;11.13;7.88;;;3.00;99.90;;;;;;6185676;23;20132;-84
2022/03/07 08:55:16;;;;;;;12.25;8.25;;;3.10;99.90;;;;;;6184926;23;20001;-84
2022/03/07 08:57:46;;;;;;;12.43;7.22;;;3.20;99.90;;;;;;6184985;23;20001;-84
2022/03/07 09:00:13;;;;;;;16.42;8.57;;;3.20;99.90;;;;;;6160739;23;20016;-84
2022/03/07 09:02:39;;;;;;;10.38;7.10;;;3.30;99.90;;;;;;6160164;23;20005;-83
2022/03/07 09:05:07;;;;;;;12.20;7.07;;;3.40;99.90;;;;;;6184839;23;20063;-83
2022/03/07 09:07:37;;;;;;;11.18;7.03;;;3.50;99.90;;;;;;6160875;23;20041;-84
2022/03/07 09:10:11;;;;;;;11.02;6.25;;;3.50;99.90;;;;;;6184556;23;20004;-84
2022/03/07 09:12:39;;;;;;;8.43;6.05;;;3.60;99.90;;;;;;6184719;23;20418;-83
2022/03/07 09:15:16;;;;;;;10.10;5.78;;;3.70;99.90;;;;;;6185041;23;20012;-83
2022/03/07 09:17:42;;;;;;;11.43;6.10;;;3.80;99.90;;;;;;6185047;23;20004;-83
2022/03/07 09:20:11;;;;;;;8.57;5.05;;;3.80;99.90;;;;;;6184425;23;20093;-83
2022/03/07 09:22:37;;;;;;;6.90;4.65;;;3.80;97.80;;;;;;6186590;23;20336;-82
2022/03/07 09:25:06;;;;;;;7.47;5.07;;;3.90;98.70;;;;;;6160200;23;20005;-83
2022/03/07 09:27:32;;;;;;;7.45;4.72;;;4.00;98.40;;;;;;6184504;23;20032;-83
2022/03/07 09:29:57;;;;;;;8.27;5.28;;;4.10;98.20;;;;;;6184858;23;20009;-83
2022/03/07 09:32:23;;;;;;;7.90;5.25;;;4.20;98.40;;;;;;6186304;23;20001;-83
2022/03/07 09:34:54;;;;;;;10.48;5.20;;;4.30;98.80;;;;;;6184404;23;20002;-83
2022/03/07 09:37:20;;;;;;;8.63;5.57;;;4.40;98.90;;;;;;6186218;23;20001;-82
2022/03/07 09:39:46;;;;;;;8.90;5.15;;;4.50;98.80;;;;;;6160555;23;20032;-82
2022/03/07 09:42:12;;;;;;;10.57;6.07;;;4.60;97.90;;;;;;6184631;23;20001;-81
2022/03/07 09:44:37;;;;;;;9.77;6.00;;;4.70;97.80;;;;;;6183760;23;20100;-83
2022/03/07 09:47:04;;;;;;;8.00;4.43;;;4.80;97.30;;;;;;6182862;23;20309;-83
2022/03/07 09:49:30;;;;;;;8.52;5.00;;;4.80;97.20;;;;;;6184618;23;20001;-82
2022/03/07 09:51:59;;;;;;;9.63;4.80;;;4.90;97.30;;;;;;6184665;23;20084;-82
2022/03/07 09:54:25;;;;;;;11.82;4.93;;;5.00;96.70;;;;;;6159292;23;20024;-82
2022/03/07 09:56:55;;;;;;;11.10;4.90;;;5.10;96.40;;;;;;6184623;23;20056;-84
2022/03/07 09:59:24;;;;;;;9.00;5.10;;;5.20;95.90;;;;;;6184821;23;20005;-86
2022/03/07 10:02:05;;;;;;;9.25;5.40;;;5.30;95.70;;;;;;6160505;23;20019;-84
2022/03/07 10:04:39;;;;;;;6.90;4.75;;;5.40;95.90;;;;;;6183917;23;20513;-84
2022/03/07 10:07:09;;;;;;;10.50;5.10;;;5.50;95.90;;;;;;6160856;23;20009;-84
2022/03/07 10:09:38;;;;;;;12.55;5.03;;;5.60;95.50;;;;;;6185005;23;20001;-83
2022/03/07 10:12:04;;;;;;;7.72;5.05;;;5.70;94.00;;;;;;6184216;23;20005;-83
2022/03/07 10:14:46;;;;;;;9.38;4.50;;;5.80;94.70;;;;;;6184959;23;20075;-83
2022/03/07 10:17:26;;;;;;;8.85;4.18;;;5.90;94.90;;;;;;6184846;23;20005;-83
2022/03/07 10:19:54;;;;;;;8.77;4.50;;;6.10;92.70;;;;;;6184610;23;20009;-84
2022/03/07 10:22:27;;;;;;;7.05;4.75;;;6.20;91.70;;;;;;6184482;23;20008;-84
2022/03/07 10:25:11;;;;;;;6.72;4.32;;;6.30;92.50;;;;;;6184800;23;20368;-83
2022/03/07 10:27:41;;;;;;;9.38;4.80;;;6.40;92.70;;;;;;6185003;23;20005;-83
2022/03/07 10:30:14;;;;;;;11.35;5.43;;;6.50;92.30;;;;;;6184424;23;20383;-84
2022/03/07 10:32:41;;;;;;;8.27;4.50;;;6.60;92.10;;;;;;6184527;23;20002;-83
2022/03/07 10:35:08;;;;;;;6.55;4.60;;;6.70;91.90;;;;;;6159873;23;20555;-82
2022/03/07 10:37:39;;;;;;;7.88;5.13;;;6.80;91.90;;;;;;6184372;23;20324;-82
2022/03/07 10:40:18;;;;;;;8.20;5.07;;;7.00;92.10;;;;;;6184526;23;20068;-83
2022/03/07 10:42:45;;;;;;;9.48;5.45;;;7.10;92.20;;;;;;6184704;23;20020;-82
2022/03/07 10:45:12;;;;;;;7.15;4.20;;;7.20;92.30;;;;;;6184397;23;20379;-82
2022/03/07 10:47:37;;;;;;;8.75;4.88;;;7.40;92.10;;;;;;6184546;23;20005;-82
2022/03/07 10:50:26;;;;;;;9.50;4.55;;;7.50;91.50;;;;;;6184452;23;20375;-83
2022/03/07 10:53:01;;;;;;;8.25;4.45;;;7.60;91.00;;;;;;6184553;23;20008;-83
2022/03/07 10:55:29;;;;;;;8.60;4.57;;;7.70;90.70;;;;;;6184546;23;19997;-82
2022/03/07 10:58:15;;;;;;;7.78;4.13;;;7.80;90.10;;;;;;6184420;23;20104;-82
2022/03/07 11:00:51;;;;;;;7.72;4.25;;;7.90;89.00;;;;;;6134867;23;20013;-83
2022/03/07 11:03:23;;;;;;;7.38;4.13;;;8.00;87.00;;;;;;6185642;23;20005;-82
2022/03/07 11:05:49;;;;;;;6.72;4.05;;;8.10;86.40;;;;;;6184324;23;20005;-83
2022/03/07 11:08:16;;;;;;;6.93;3.95;;;8.10;86.10;;;;;;6159312;23;20009;-83
2022/03/07 11:10:53;;;;;;;10.13;4.93;;;8.20;86.40;;;;;;6159355;23;20012;-80
2022/03/07 11:13:26;;;;;;;7.70;4.15;;;8.30;85.00;;;;;;6183050;23;20013;-80
2022/03/07 11:15:57;;;;;;;6.85;4.07;;;8.40;84.90;;;;;;6183668;23;20059;-81
2022/03/07 11:18:24;;;;;;;7.65;4.20;;;8.50;84.80;;;;;;6183948;23;20420;-81
2022/03/07 11:20:52;;;;;;;9.05;4.47;;;8.60;83.10;;;;;;6158810;23;20075;-83
2022/03/07 11:23:18;;;;;;;5.85;4.05;;;8.60;81.20;;;;;;6183826;23;20008;-81
2022/03/07 11:25:49;;;;;;;10.13;4.47;;;8.70;80.10;;;;;;6158959;23;20013;-80
2022/03/07 11:28:18;;;;;;;7.32;4.18;;;8.80;80.30;;;;;;6185556;23;20388;-81
2022/03/07 11:30:47;;;;;;;8.25;4.10;;;8.90;80.00;;;;;;6183912;23;20005;-81
2022/03/07 11:33:15;;;;;;;6.22;4.32;;;8.90;80.10;;;;;;6184949;23;20002;-80
2022/03/07 11:35:46;;;;;;;7.70;4.53;;;9.00;80.00;;;;;;6185185;23;19997;-81
2022/03/07 11:38:17;;;;;;;7.18;4.43;;;9.10;79.60;;;;;;6183514;23;20043;-81
2022/03/07 11:41:02;;;;;;;7.25;4.30;;;9.20;79.60;;;;;;6183713;23;20005;-80
2022/03/07 11:43:30;;;;;;;7.35;4.40;;;9.30;80.70;;;;;;6183705;23;20008;-81
2022/03/07 11:45:58;;;;;;;6.78;4.40;;;9.40;80.20;;;;;;6182919;23;20057;-81
2022/03/07 11:48:25;;;;;;;9.15;4.13;;;9.50;78.80;;;;;;6182209;23;20432;-81
2022/03/07 11:50:53;;;;;;;7.18;4.47;;;9.50;79.00;;;;;;6183758;23;20080;-80
2022/03/07 11:53:19;;;;;;;9.25;4.53;;;9.60;78.80;;;;;;6159152;23;20052;-81
2022/03/07 11:55:52;;;;;;;8.50;4.90;;;9.60;77.60;;;;;;6185480;23;20000;-80
2022/03/07 11:58:30;;;;;;;8.13;5.10;;;9.70;78.00;;;;;;6185304;23;20000;-81
2022/03/07 12:01:26;;;;;;;9.18;5.38;;;9.70;77.30;;;;;;6185289;23;20016;-81
2022/03/07 12:03:52;;;;;;;7.25;5.30;;;9.60;77.10;;;;;;6153420;23;20012;-81
2022/03/07 12:06:20;;;;;;;7.28;4.75;;;9.70;76.80;;;;;;6183322;23;20001;-81
2022/03/07 12:09:00;;;;;;;9.75;5.45;;;9.70;77.50;;;;;;6159095;23;20005;-80
2022/03/07 12:11:32;;;;;;;8.50;4.97;;;9.80;78.30;;;;;;6183631;23;20004;-81
2022/03/07 12:14:04;;;;;;;8.38;4.95;;;9.80;78.50;;;;;;6183168;23;20012;-80
2022/03/07 12:16:32;;;;;;;10.32;5.55;;;9.90;78.90;;;;;;6183677;23;20001;-81
2022/03/07 12:19:12;;;;;;;10.05;5.75;;;10.10;78.90;;;;;;6183384;23;20332;-81
2022/03/07 12:21:41;;;;;;;9.50;5.47;;;10.20;77.30;;;;;;6183050;23;20020;-81
2022/03/07 12:24:14;;;;;;;8.20;4.97;;;10.30;76.60;;;;;;6159021;23;20012;-81
2022/03/07 12:26:47;;;;;;;8.32;6.03;;;10.40;77.80;;;;;;6183633;23;20001;-81
2022/03/07 12:29:14;;;;;;;8.95;5.90;;;10.50;78.90;;;;;;6183168;23;20001;-80
2022/03/07 12:31:53;;;;;;;10.13;6.03;;;10.60;78.20;;;;;;6183299;23;20005;-81
2022/03/07 12:34:25;;;;;;;8.90;6.32;;;10.70;78.50;;;;;;6183421;23;19997;-81
2022/03/07 12:37:11;;;;;;;10.57;6.00;;;10.80;79.10;;;;;;6182777;23;20431;-81
2022/03/07 12:39:57;;;;;;;8.85;6.38;;;10.90;78.50;;;;;;6183355;23;20040;-81
2022/03/07 12:42:42;;;;;;;8.27;6.13;;;11.00;78.90;;;;;;6183357;23;20082;-81
2022/03/07 12:45:09;;;;;;;7.45;5.80;;;11.00;78.40;;;;;;6183440;23;20032;-81
2022/03/07 12:47:37;;;;;;;10.50;5.90;;;11.00;77.90;;;;;;6184969;23;20004;-80
2022/03/07 12:50:12;;;;;;;10.02;5.72;;;11.00;77.60;;;;;;6184488;23;20427;-82
2022/03/07 12:52:45;;;;;;;12.68;5.70;;;11.00;77.60;;;;;;6158819;23;20096;-81
2022/03/07 12:55:14;;;;;;;10.13;5.75;;;11.00;77.50;;;;;;6159248;23;20029;-82
2022/03/07 12:57:40;;;;;;;8.25;5.32;;;11.10;78.20;;;;;;6183209;23;20001;-82